ZJI weather

Locarno Airport
Locarno, Canton of Ticino, Switzerland

Public forecast

Using degrees Celsius for public forecast. Weather courtesy of forecast.io.

METAR (pilot weather report)

Retrieved 2019/07/17 14:20 UTC (0 seconds ago):

LSZL 171420Z 26004KT 230V310 9999 FEW060 SCT180 28/17 Q1011 RMK BLU+

TAF (pilot weather forecast)

Closest forecast is Malpensa International Airport, 32.4 nm (60.1 km) S. Retrieved 2019/07/17 12:24 UTC (2 hours ago):

TAF LIMC 171100Z 1712/1818 VRB05KT CAVOK PROB30 TEMPO 1804/1808 TSRA TEMPO 1813/1818 TSRA